Terminal Aerodrome Forecast
Issued by NWS Amarillo, TX

Home | Current Version | Previous Version | Text Only | Print | Product List | Glossary On
Versions: 1 2 3 4 5 6 7 8 9 10 11 12 13 14 15 16
000
FTUS44 KAMA 170520
TAFDHT
TAF
KDHT 170520Z 1706/1806 VRB06KT P6SM SKC
     FM171400 16010KT P6SM SKC
     FM171900 18015KT P6SM SCT070 PROB30 1719/1801 TSRA BKN050CB=

USA.gov is the U.S. government's official web portal to all federal, state and local government web resources and services.